sensor_id;sensor_type;location;lat;lon;timestamp;P1;durP1;ratioP1;P2;durP2;ratioP2
5349;SDS011;2697;42.144;24.794;2023-05-02T00:02:12;7.30;;;5.87;;
5349;SDS011;2697;42.144;24.794;2023-05-02T00:04:38;18.23;;;7.30;;
5349;SDS011;2697;42.144;24.794;2023-05-02T00:07:03;13.13;;;6.63;;
5349;SDS011;2697;42.144;24.794;2023-05-02T00:09:29;9.70;;;7.17;;
5349;SDS011;2697;42.144;24.794;2023-05-02T00:11:55;11.00;;;7.00;;
5349;SDS011;2697;42.144;24.794;2023-05-02T00:14:20;7.53;;;6.70;;
5349;SDS011;2697;42.144;24.794;2023-05-02T00:16:45;14.83;;;7.03;;
5349;SDS011;2697;42.144;24.794;2023-05-02T00:19:11;10.60;;;6.37;;
5349;SDS011;2697;42.144;24.794;2023-05-02T00:21:36;12.40;;;7.20;;
5349;SDS011;2697;42.144;24.794;2023-05-02T00:24:01;14.20;;;6.90;;
5349;SDS011;2697;42.144;24.794;2023-05-02T00:26:27;9.47;;;6.00;;
5349;SDS011;2697;42.144;24.794;2023-05-02T00:28:52;12.10;;;7.80;;
5349;SDS011;2697;42.144;24.794;2023-05-02T00:31:18;12.30;;;6.80;;
5349;SDS011;2697;42.144;24.794;2023-05-02T00:33:43;11.00;;;6.23;;
5349;SDS011;2697;42.144;24.794;2023-05-02T00:36:15;9.10;;;7.00;;
5349;SDS011;2697;42.144;24.794;2023-05-02T00:38:42;10.47;;;6.70;;
5349;SDS011;2697;42.144;24.794;2023-05-02T00:41:08;10.03;;;6.83;;
5349;SDS011;2697;42.144;24.794;2023-05-02T00:43:33;8.97;;;7.43;;
5349;SDS011;2697;42.144;24.794;2023-05-02T00:45:59;9.27;;;6.53;;
5349;SDS011;2697;42.144;24.794;2023-05-02T00:48:24;14.20;;;7.70;;
5349;SDS011;2697;42.144;24.794;2023-05-02T00:50:50;14.00;;;7.20;;
5349;SDS011;2697;42.144;24.794;2023-05-02T00:53:16;11.10;;;7.43;;
5349;SDS011;2697;42.144;24.794;2023-05-02T00:55:42;10.43;;;7.30;;
5349;SDS011;2697;42.144;24.794;2023-05-02T00:58:08;10.80;;;7.23;;
5349;SDS011;2697;42.144;24.794;2023-05-02T01:00:41;16.43;;;8.37;;
5349;SDS011;2697;42.144;24.794;2023-05-02T01:03:41;15.43;;;7.57;;
5349;SDS011;2697;42.144;24.794;2023-05-02T01:11:43;16.63;;;7.37;;
5349;SDS011;2697;42.144;24.794;2023-05-02T01:14:15;10.00;;;6.87;;
5349;SDS011;2697;42.144;24.794;2023-05-02T01:16:42;16.77;;;8.20;;
5349;SDS011;2697;42.144;24.794;2023-05-02T01:19:30;10.10;;;7.10;;
5349;SDS011;2697;42.144;24.794;2023-05-02T01:22:00;9.13;;;6.80;;
5349;SDS011;2697;42.144;24.794;2023-05-02T01:24:29;12.90;;;7.00;;
5349;SDS011;2697;42.144;24.794;2023-05-02T01:29:46;12.90;;;6.73;;
5349;SDS011;2697;42.144;24.794;2023-05-02T01:32:14;12.40;;;7.33;;
5349;SDS011;2697;42.144;24.794;2023-05-02T01:34:41;10.43;;;7.40;;
5349;SDS011;2697;42.144;24.794;2023-05-02T01:37:10;11.67;;;8.20;;
5349;SDS011;2697;42.144;24.794;2023-05-02T01:39:38;10.90;;;6.90;;
5349;SDS011;2697;42.144;24.794;2023-05-02T01:42:05;12.43;;;8.87;;
5349;SDS011;2697;42.144;24.794;2023-05-02T01:44:30;16.60;;;8.27;;
5349;SDS011;2697;42.144;24.794;2023-05-02T01:46:59;14.53;;;8.73;;
5349;SDS011;2697;42.144;24.794;2023-05-02T01:49:27;16.43;;;8.47;;
5349;SDS011;2697;42.144;24.794;2023-05-02T01:51:55;13.17;;;8.53;;
5349;SDS011;2697;42.144;24.794;2023-05-02T01:54:27;18.43;;;7.90;;
5349;SDS011;2697;42.144;24.794;2023-05-02T01:56:52;20.53;;;8.47;;
5349;SDS011;2697;42.144;24.794;2023-05-02T01:59:20;35.70;;;9.50;;
5349;SDS011;2697;42.144;24.794;2023-05-02T02:01:48;26.00;;;9.57;;
5349;SDS011;2697;42.144;24.794;2023-05-02T02:04:15;22.90;;;9.20;;
5349;SDS011;2697;42.144;24.794;2023-05-02T02:06:44;20.93;;;9.37;;
5349;SDS011;2697;42.144;24.794;2023-05-02T02:09:14;19.43;;;10.90;;
5349;SDS011;2697;42.144;24.794;2023-05-02T02:11:42;15.33;;;8.63;;
5349;SDS011;2697;42.144;24.794;2023-05-02T02:14:13;14.43;;;9.00;;
5349;SDS011;2697;42.144;24.794;2023-05-02T02:16:42;18.83;;;10.40;;
5349;SDS011;2697;42.144;24.794;2023-05-02T02:19:09;21.60;;;10.03;;
5349;SDS011;2697;42.144;24.794;2023-05-02T02:21:37;14.03;;;9.10;;
5349;SDS011;2697;42.144;24.794;2023-05-02T02:24:06;25.33;;;8.37;;
5349;SDS011;2697;42.144;24.794;2023-05-02T02:26:32;17.43;;;9.50;;
5349;SDS011;2697;42.144;24.794;2023-05-02T02:28:59;15.43;;;7.97;;
5349;SDS011;2697;42.144;24.794;2023-05-02T02:31:29;19.10;;;9.10;;
5349;SDS011;2697;42.144;24.794;2023-05-02T02:33:58;15.67;;;8.10;;
5349;SDS011;2697;42.144;24.794;2023-05-02T02:44:55;20.17;;;8.30;;
5349;SDS011;2697;42.144;24.794;2023-05-02T02:48:09;19.73;;;9.03;;
5349;SDS011;2697;42.144;24.794;2023-05-02T02:56:22;13.53;;;7.67;;
5349;SDS011;2697;42.144;24.794;2023-05-02T02:58:56;15.40;;;8.27;;
5349;SDS011;2697;42.144;24.794;2023-05-02T03:01:29;17.63;;;9.20;;
5349;SDS011;2697;42.144;24.794;2023-05-02T03:03:56;22.17;;;8.00;;
5349;SDS011;2697;42.144;24.794;2023-05-02T03:06:22;23.00;;;9.17;;
5349;SDS011;2697;42.144;24.794;2023-05-02T03:08:48;14.50;;;8.83;;
5349;SDS011;2697;42.144;24.794;2023-05-02T03:11:14;19.03;;;8.87;;
5349;SDS011;2697;42.144;24.794;2023-05-02T03:13:39;21.93;;;7.93;;
5349;SDS011;2697;42.144;24.794;2023-05-02T03:18:59;16.90;;;8.47;;
5349;SDS011;2697;42.144;24.794;2023-05-02T03:21:25;11.60;;;8.17;;
5349;SDS011;2697;42.144;24.794;2023-05-02T03:23:50;12.23;;;7.40;;
5349;SDS011;2697;42.144;24.794;2023-05-02T03:26:16;12.73;;;8.47;;
5349;SDS011;2697;42.144;24.794;2023-05-02T03:28:41;17.63;;;8.10;;
5349;SDS011;2697;42.144;24.794;2023-05-02T03:31:10;16.10;;;9.50;;
5349;SDS011;2697;42.144;24.794;2023-05-02T03:33:36;16.47;;;9.43;;
5349;SDS011;2697;42.144;24.794;2023-05-02T03:36:01;16.00;;;8.00;;
5349;SDS011;2697;42.144;24.794;2023-05-02T03:38:28;10.20;;;7.97;;
5349;SDS011;2697;42.144;24.794;2023-05-02T03:40:55;13.40;;;8.13;;
5349;SDS011;2697;42.144;24.794;2023-05-02T03:43:22;13.03;;;8.10;;
5349;SDS011;2697;42.144;24.794;2023-05-02T03:45:47;9.47;;;6.97;;
5349;SDS011;2697;42.144;24.794;2023-05-02T03:48:13;17.00;;;6.83;;
5349;SDS011;2697;42.144;24.794;2023-05-02T03:50:38;13.13;;;6.90;;
5349;SDS011;2697;42.144;24.794;2023-05-02T03:53:03;19.60;;;7.40;;
5349;SDS011;2697;42.144;24.794;2023-05-02T03:55:29;18.83;;;6.30;;
5349;SDS011;2697;42.144;24.794;2023-05-02T03:57:54;13.33;;;5.87;;
5349;SDS011;2697;42.144;24.794;2023-05-02T04:00:20;31.13;;;6.90;;
5349;SDS011;2697;42.144;24.794;2023-05-02T04:02:46;8.73;;;4.80;;
5349;SDS011;2697;42.144;24.794;2023-05-02T04:05:12;9.03;;;5.23;;
5349;SDS011;2697;42.144;24.794;2023-05-02T04:07:37;19.77;;;5.37;;
5349;SDS011;2697;42.144;24.794;2023-05-02T04:10:02;7.83;;;4.90;;
5349;SDS011;2697;42.144;24.794;2023-05-02T04:12:28;11.70;;;5.40;;
5349;SDS011;2697;42.144;24.794;2023-05-02T04:14:53;17.80;;;6.10;;
5349;SDS011;2697;42.144;24.794;2023-05-02T04:17:19;11.67;;;5.27;;
5349;SDS011;2697;42.144;24.794;2023-05-02T04:19:45;26.63;;;9.33;;
5349;SDS011;2697;42.144;24.794;2023-05-02T04:22:10;23.67;;;6.33;;
5349;SDS011;2697;42.144;24.794;2023-05-02T04:24:36;8.93;;;5.57;;
5349;SDS011;2697;42.144;24.794;2023-05-02T04:27:01;15.13;;;5.37;;
5349;SDS011;2697;42.144;24.794;2023-05-02T04:29:27;20.60;;;8.03;;
5349;SDS011;2697;42.144;24.794;2023-05-02T04:31:52;8.13;;;4.90;;
5349;SDS011;2697;42.144;24.794;2023-05-02T04:34:18;32.57;;;6.50;;
5349;SDS011;2697;42.144;24.794;2023-05-02T04:36:44;17.70;;;6.17;;
5349;SDS011;2697;42.144;24.794;2023-05-02T04:39:10;13.67;;;7.67;;
5349;SDS011;2697;42.144;24.794;2023-05-02T04:41:36;13.10;;;5.30;;
5349;SDS011;2697;42.144;24.794;2023-05-02T04:44:01;10.60;;;4.10;;
5349;SDS011;2697;42.144;24.794;2023-05-02T04:46:27;11.97;;;4.10;;
5349;SDS011;2697;42.144;24.794;2023-05-02T04:48:53;19.90;;;3.90;;
5349;SDS011;2697;42.144;24.794;2023-05-02T04:51:18;20.83;;;4.57;;
5349;SDS011;2697;42.144;24.794;2023-05-02T04:53:44;14.47;;;4.23;;
5349;SDS011;2697;42.144;24.794;2023-05-02T04:56:09;6.73;;;4.20;;
5349;SDS011;2697;42.144;24.794;2023-05-02T04:58:35;23.77;;;4.00;;
5349;SDS011;2697;42.144;24.794;2023-05-02T05:01:00;5.40;;;3.73;;
5349;SDS011;2697;42.144;24.794;2023-05-02T05:03:26;13.53;;;3.90;;
5349;SDS011;2697;42.144;24.794;2023-05-02T05:05:54;9.93;;;3.53;;
5349;SDS011;2697;42.144;24.794;2023-05-02T05:08:20;11.77;;;3.57;;
5349;SDS011;2697;42.144;24.794;2023-05-02T05:10:45;7.17;;;3.73;;
5349;SDS011;2697;42.144;24.794;2023-05-02T05:13:11;9.40;;;4.50;;
5349;SDS011;2697;42.144;24.794;2023-05-02T05:15:37;7.23;;;4.03;;
5349;SDS011;2697;42.144;24.794;2023-05-02T05:18:04;7.40;;;4.43;;
5349;SDS011;2697;42.144;24.794;2023-05-02T05:20:29;6.17;;;4.50;;
5349;SDS011;2697;42.144;24.794;2023-05-02T05:22:55;9.07;;;4.57;;
5349;SDS011;2697;42.144;24.794;2023-05-02T05:25:21;14.63;;;5.10;;
5349;SDS011;2697;42.144;24.794;2023-05-02T05:27:46;10.20;;;3.83;;
5349;SDS011;2697;42.144;24.794;2023-05-02T05:30:11;5.00;;;3.10;;
5349;SDS011;2697;42.144;24.794;2023-05-02T05:32:37;6.73;;;4.77;;
5349;SDS011;2697;42.144;24.794;2023-05-02T05:35:03;13.00;;;4.83;;
5349;SDS011;2697;42.144;24.794;2023-05-02T05:37:28;15.97;;;4.77;;
5349;SDS011;2697;42.144;24.794;2023-05-02T05:39:54;19.90;;;4.30;;
5349;SDS011;2697;42.144;24.794;2023-05-02T05:42:19;12.80;;;5.27;;
5349;SDS011;2697;42.144;24.794;2023-05-02T05:44:45;18.63;;;5.23;;
5349;SDS011;2697;42.144;24.794;2023-05-02T05:47:10;17.40;;;5.37;;
5349;SDS011;2697;42.144;24.794;2023-05-02T05:49:36;30.03;;;4.93;;
5349;SDS011;2697;42.144;24.794;2023-05-02T05:52:01;41.53;;;5.80;;
5349;SDS011;2697;42.144;24.794;2023-05-02T05:54:27;15.87;;;5.40;;
5349;SDS011;2697;42.144;24.794;2023-05-02T05:56:52;38.00;;;5.60;;
5349;SDS011;2697;42.144;24.794;2023-05-02T05:59:18;10.10;;;3.87;;
5349;SDS011;2697;42.144;24.794;2023-05-02T06:01:43;15.93;;;4.40;;
5349;SDS011;2697;42.144;24.794;2023-05-02T06:04:08;9.63;;;3.60;;
5349;SDS011;2697;42.144;24.794;2023-05-02T06:06:34;8.80;;;3.10;;
5349;SDS011;2697;42.144;24.794;2023-05-02T06:08:59;5.13;;;4.00;;
5349;SDS011;2697;42.144;24.794;2023-05-02T06:11:25;3.70;;;2.83;;
5349;SDS011;2697;42.144;24.794;2023-05-02T06:13:51;6.10;;;3.40;;
5349;SDS011;2697;42.144;24.794;2023-05-02T06:16:17;17.60;;;2.87;;
5349;SDS011;2697;42.144;24.794;2023-05-02T06:18:43;4.10;;;3.07;;
5349;SDS011;2697;42.144;24.794;2023-05-02T06:21:10;4.43;;;2.90;;
5349;SDS011;2697;42.144;24.794;2023-05-02T06:23:35;10.87;;;2.97;;
5349;SDS011;2697;42.144;24.794;2023-05-02T06:26:01;9.80;;;3.07;;
5349;SDS011;2697;42.144;24.794;2023-05-02T06:28:28;3.30;;;3.00;;
5349;SDS011;2697;42.144;24.794;2023-05-02T06:31:00;8.70;;;3.00;;
5349;SDS011;2697;42.144;24.794;2023-05-02T06:33:30;10.10;;;4.00;;
5349;SDS011;2697;42.144;24.794;2023-05-02T06:35:57;10.47;;;4.00;;
5349;SDS011;2697;42.144;24.794;2023-05-02T06:38:23;4.33;;;3.00;;
5349;SDS011;2697;42.144;24.794;2023-05-02T06:40:49;7.83;;;3.60;;
5349;SDS011;2697;42.144;24.794;2023-05-02T06:43:15;7.07;;;3.50;;
5349;SDS011;2697;42.144;24.794;2023-05-02T06:45:41;5.73;;;3.00;;
5349;SDS011;2697;42.144;24.794;2023-05-02T06:48:07;6.80;;;3.67;;
5349;SDS011;2697;42.144;24.794;2023-05-02T06:50:33;6.30;;;3.23;;
5349;SDS011;2697;42.144;24.794;2023-05-02T06:52:58;4.03;;;2.63;;
5349;SDS011;2697;42.144;24.794;2023-05-02T06:55:24;7.07;;;3.60;;
5349;SDS011;2697;42.144;24.794;2023-05-02T06:57:50;7.43;;;3.00;;
5349;SDS011;2697;42.144;24.794;2023-05-02T07:00:16;12.03;;;3.20;;
5349;SDS011;2697;42.144;24.794;2023-05-02T07:02:43;7.33;;;3.83;;
5349;SDS011;2697;42.144;24.794;2023-05-02T07:05:09;8.27;;;3.10;;
5349;SDS011;2697;42.144;24.794;2023-05-02T07:07:35;5.10;;;3.40;;
5349;SDS011;2697;42.144;24.794;2023-05-02T07:10:00;10.37;;;3.10;;
5349;SDS011;2697;42.144;24.794;2023-05-02T07:12:26;5.80;;;3.33;;
5349;SDS011;2697;42.144;24.794;2023-05-02T07:14:52;19.23;;;4.60;;
5349;SDS011;2697;42.144;24.794;2023-05-02T07:17:18;3.67;;;1.97;;
5349;SDS011;2697;42.144;24.794;2023-05-02T07:19:43;6.13;;;2.50;;
5349;SDS011;2697;42.144;24.794;2023-05-02T07:22:09;8.07;;;3.67;;
5349;SDS011;2697;42.144;24.794;2023-05-02T07:24:34;9.60;;;2.90;;
5349;SDS011;2697;42.144;24.794;2023-05-02T07:26:59;6.93;;;3.50;;
5349;SDS011;2697;42.144;24.794;2023-05-02T07:29:25;3.97;;;2.63;;
5349;SDS011;2697;42.144;24.794;2023-05-02T07:31:51;9.40;;;3.13;;
5349;SDS011;2697;42.144;24.794;2023-05-02T07:34:16;4.97;;;2.90;;
5349;SDS011;2697;42.144;24.794;2023-05-02T07:36:41;4.47;;;2.27;;
5349;SDS011;2697;42.144;24.794;2023-05-02T07:39:07;4.10;;;3.00;;
5349;SDS011;2697;42.144;24.794;2023-05-02T07:41:32;7.00;;;3.50;;
5349;SDS011;2697;42.144;24.794;2023-05-02T07:43:57;7.37;;;2.70;;
5349;SDS011;2697;42.144;24.794;2023-05-02T07:46:23;4.67;;;2.10;;
5349;SDS011;2697;42.144;24.794;2023-05-02T07:48:49;18.83;;;2.63;;
5349;SDS011;2697;42.144;24.794;2023-05-02T07:51:14;4.13;;;2.10;;
5349;SDS011;2697;42.144;24.794;2023-05-02T07:53:40;2.80;;;1.97;;
5349;SDS011;2697;42.144;24.794;2023-05-02T07:56:06;3.77;;;1.97;;
5349;SDS011;2697;42.144;24.794;2023-05-02T07:58:33;1.73;;;1.47;;
5349;SDS011;2697;42.144;24.794;2023-05-02T08:00:59;5.43;;;1.70;;
5349;SDS011;2697;42.144;24.794;2023-05-02T08:03:24;5.27;;;2.30;;
5349;SDS011;2697;42.144;24.794;2023-05-02T08:05:50;4.60;;;2.07;;
5349;SDS011;2697;42.144;24.794;2023-05-02T08:08:16;2.17;;;1.80;;
5349;SDS011;2697;42.144;24.794;2023-05-02T08:10:41;2.50;;;1.70;;
5349;SDS011;2697;42.144;24.794;2023-05-02T08:13:07;2.13;;;1.30;;
5349;SDS011;2697;42.144;24.794;2023-05-02T08:15:32;5.70;;;2.10;;
5349;SDS011;2697;42.144;24.794;2023-05-02T08:17:58;3.83;;;1.73;;
5349;SDS011;2697;42.144;24.794;2023-05-02T08:20:23;10.43;;;1.70;;
5349;SDS011;2697;42.144;24.794;2023-05-02T08:22:49;3.77;;;3.10;;
5349;SDS011;2697;42.144;24.794;2023-05-02T08:25:15;4.10;;;1.53;;
5349;SDS011;2697;42.144;24.794;2023-05-02T08:27:40;3.67;;;1.60;;
5349;SDS011;2697;42.144;24.794;2023-05-02T08:30:06;1.70;;;1.40;;
5349;SDS011;2697;42.144;24.794;2023-05-02T08:32:32;3.27;;;1.50;;
5349;SDS011;2697;42.144;24.794;2023-05-02T08:34:58;2.33;;;1.53;;
5349;SDS011;2697;42.144;24.794;2023-05-02T08:37:23;1.57;;;1.30;;
5349;SDS011;2697;42.144;24.794;2023-05-02T08:39:48;4.40;;;1.67;;
5349;SDS011;2697;42.144;24.794;2023-05-02T08:42:14;18.20;;;2.20;;
5349;SDS011;2697;42.144;24.794;2023-05-02T08:44:39;1.83;;;1.40;;
5349;SDS011;2697;42.144;24.794;2023-05-02T08:47:05;3.47;;;1.97;;
5349;SDS011;2697;42.144;24.794;2023-05-02T08:49:34;2.40;;;1.30;;
5349;SDS011;2697;42.144;24.794;2023-05-02T08:52:01;1.20;;;1.10;;
5349;SDS011;2697;42.144;24.794;2023-05-02T08:54:27;5.93;;;1.90;;
5349;SDS011;2697;42.144;24.794;2023-05-02T08:56:53;8.10;;;3.67;;
5349;SDS011;2697;42.144;24.794;2023-05-02T08:59:19;6.27;;;1.80;;
5349;SDS011;2697;42.144;24.794;2023-05-02T09:01:44;7.13;;;2.37;;
5349;SDS011;2697;42.144;24.794;2023-05-02T09:04:13;10.53;;;1.63;;
5349;SDS011;2697;42.144;24.794;2023-05-02T09:06:39;1.60;;;1.30;;
5349;SDS011;2697;42.144;24.794;2023-05-02T09:09:05;6.43;;;1.53;;
5349;SDS011;2697;42.144;24.794;2023-05-02T09:11:31;5.97;;;2.00;;
5349;SDS011;2697;42.144;24.794;2023-05-02T09:13:56;1.80;;;1.20;;
5349;SDS011;2697;42.144;24.794;2023-05-02T09:16:27;2.20;;;1.20;;
5349;SDS011;2697;42.144;24.794;2023-05-02T09:18:54;3.27;;;1.77;;
5349;SDS011;2697;42.144;24.794;2023-05-02T09:21:21;2.20;;;1.30;;
5349;SDS011;2697;42.144;24.794;2023-05-02T09:23:58;4.33;;;1.67;;
5349;SDS011;2697;42.144;24.794;2023-05-02T09:28:58;4.33;;;3.00;;
5349;SDS011;2697;42.144;24.794;2023-05-02T09:31:34;5.10;;;1.50;;
5349;SDS011;2697;42.144;24.794;2023-05-02T09:34:10;3.67;;;1.53;;
5349;SDS011;2697;42.144;24.794;2023-05-02T09:36:40;4.50;;;1.40;;
5349;SDS011;2697;42.144;24.794;2023-05-02T09:39:11;3.90;;;1.80;;
5349;SDS011;2697;42.144;24.794;2023-05-02T09:41:44;4.03;;;2.37;;
5349;SDS011;2697;42.144;24.794;2023-05-02T09:44:15;2.17;;;1.70;;
5349;SDS011;2697;42.144;24.794;2023-05-02T09:46:46;1.90;;;1.37;;
5349;SDS011;2697;42.144;24.794;2023-05-02T09:49:44;7.03;;;1.60;;
5349;SDS011;2697;42.144;24.794;2023-05-02T09:52:14;1.87;;;1.33;;
5349;SDS011;2697;42.144;24.794;2023-05-02T09:54:40;1.33;;;1.20;;
5349;SDS011;2697;42.144;24.794;2023-05-02T09:57:06;2.60;;;1.30;;
5349;SDS011;2697;42.144;24.794;2023-05-02T09:59:31;9.60;;;1.77;;
5349;SDS011;2697;42.144;24.794;2023-05-02T10:01:58;3.97;;;1.50;;
5349;SDS011;2697;42.144;24.794;2023-05-02T10:04:25;1.27;;;1.10;;
5349;SDS011;2697;42.144;24.794;2023-05-02T10:06:52;3.30;;;1.40;;
5349;SDS011;2697;42.144;24.794;2023-05-02T10:09:18;5.97;;;1.80;;
5349;SDS011;2697;42.144;24.794;2023-05-02T10:11:45;1.60;;;1.50;;
5349;SDS011;2697;42.144;24.794;2023-05-02T10:14:13;1.60;;;1.40;;
5349;SDS011;2697;42.144;24.794;2023-05-02T10:17:26;1.60;;;1.43;;
5349;SDS011;2697;42.144;24.794;2023-05-02T10:19:55;11.83;;;1.80;;
5349;SDS011;2697;42.144;24.794;2023-05-02T10:22:23;4.00;;;1.50;;
5349;SDS011;2697;42.144;24.794;2023-05-02T10:24:49;3.50;;;2.03;;
5349;SDS011;2697;42.144;24.794;2023-05-02T10:27:17;6.60;;;2.27;;
5349;SDS011;2697;42.144;24.794;2023-05-02T10:29:43;1.20;;;1.10;;
5349;SDS011;2697;42.144;24.794;2023-05-02T10:32:10;1.93;;;1.07;;
5349;SDS011;2697;42.144;24.794;2023-05-02T10:34:38;3.30;;;1.77;;
5349;SDS011;2697;42.144;24.794;2023-05-02T10:37:05;1.50;;;1.20;;
5349;SDS011;2697;42.144;24.794;2023-05-02T10:39:31;1.53;;;0.93;;
5349;SDS011;2697;42.144;24.794;2023-05-02T10:41:57;1.73;;;1.37;;
5349;SDS011;2697;42.144;24.794;2023-05-02T10:44:33;3.70;;;1.67;;
5349;SDS011;2697;42.144;24.794;2023-05-02T10:46:58;5.20;;;1.03;;
5349;SDS011;2697;42.144;24.794;2023-05-02T10:49:24;5.67;;;1.47;;
5349;SDS011;2697;42.144;24.794;2023-05-02T10:51:51;1.80;;;1.63;;
5349;SDS011;2697;42.144;24.794;2023-05-02T11:01:56;10.27;;;1.60;;
5349;SDS011;2697;42.144;24.794;2023-05-02T11:04:21;2.50;;;1.33;;
5349;SDS011;2697;42.144;24.794;2023-05-02T11:11:54;3.63;;;1.77;;
5349;SDS011;2697;42.144;24.794;2023-05-02T11:19:31;1.70;;;1.00;;
5349;SDS011;2697;42.144;24.794;2023-05-02T11:24:48;4.33;;;1.13;;
5349;SDS011;2697;42.144;24.794;2023-05-02T11:27:47;2.03;;;1.20;;
5349;SDS011;2697;42.144;24.794;2023-05-02T11:30:08;3.23;;;1.00;;
5349;SDS011;2697;42.144;24.794;2023-05-02T11:35:22;3.33;;;1.47;;
5349;SDS011;2697;42.144;24.794;2023-05-02T11:40:19;2.10;;;1.40;;
5349;SDS011;2697;42.144;24.794;2023-05-02T11:42:45;3.00;;;1.70;;
5349;SDS011;2697;42.144;24.794;2023-05-02T11:45:11;3.87;;;1.40;;
5349;SDS011;2697;42.144;24.794;2023-05-02T11:47:37;1.87;;;1.20;;
5349;SDS011;2697;42.144;24.794;2023-05-02T11:50:03;1.70;;;1.10;;
5349;SDS011;2697;42.144;24.794;2023-05-02T11:52:29;2.47;;;1.23;;
5349;SDS011;2697;42.144;24.794;2023-05-02T11:54:55;1.23;;;1.00;;
5349;SDS011;2697;42.144;24.794;2023-05-02T11:57:21;2.20;;;1.10;;
5349;SDS011;2697;42.144;24.794;2023-05-02T11:59:50;2.70;;;1.47;;
5349;SDS011;2697;42.144;24.794;2023-05-02T12:02:17;3.10;;;1.90;;
5349;SDS011;2697;42.144;24.794;2023-05-02T12:04:42;1.90;;;1.43;;
5349;SDS011;2697;42.144;24.794;2023-05-02T12:07:11;5.10;;;2.50;;
5349;SDS011;2697;42.144;24.794;2023-05-02T12:09:52;5.53;;;1.30;;
5349;SDS011;2697;42.144;24.794;2023-05-02T12:12:18;1.80;;;1.50;;
5349;SDS011;2697;42.144;24.794;2023-05-02T12:14:45;3.57;;;1.23;;
5349;SDS011;2697;42.144;24.794;2023-05-02T12:17:10;10.47;;;1.67;;
5349;SDS011;2697;42.144;24.794;2023-05-02T12:19:43;2.00;;;1.10;;
5349;SDS011;2697;42.144;24.794;2023-05-02T12:22:09;3.67;;;1.07;;
5349;SDS011;2697;42.144;24.794;2023-05-02T12:24:37;4.80;;;1.53;;
5349;SDS011;2697;42.144;24.794;2023-05-02T12:27:13;2.90;;;1.73;;
5349;SDS011;2697;42.144;24.794;2023-05-02T12:29:46;5.97;;;1.40;;
5349;SDS011;2697;42.144;24.794;2023-05-02T12:32:13;1.73;;;1.30;;
5349;SDS011;2697;42.144;24.794;2023-05-02T12:34:39;3.80;;;1.43;;
5349;SDS011;2697;42.144;24.794;2023-05-02T12:37:05;8.03;;;1.70;;
5349;SDS011;2697;42.144;24.794;2023-05-02T12:39:36;2.90;;;1.40;;
5349;SDS011;2697;42.144;24.794;2023-05-02T12:42:11;1.33;;;1.23;;
5349;SDS011;2697;42.144;24.794;2023-05-02T12:44:38;1.10;;;1.03;;
5349;SDS011;2697;42.144;24.794;2023-05-02T12:47:06;13.13;;;1.50;;
5349;SDS011;2697;42.144;24.794;2023-05-02T12:49:32;2.37;;;1.40;;
5349;SDS011;2697;42.144;24.794;2023-05-02T12:52:11;1.00;;;0.90;;
5349;SDS011;2697;42.144;24.794;2023-05-02T12:54:37;3.23;;;1.60;;
5349;SDS011;2697;42.144;24.794;2023-05-02T12:57:02;1.70;;;1.20;;
5349;SDS011;2697;42.144;24.794;2023-05-02T12:59:31;9.10;;;1.43;;
5349;SDS011;2697;42.144;24.794;2023-05-02T13:01:57;5.40;;;1.50;;
5349;SDS011;2697;42.144;24.794;2023-05-02T13:04:39;1.10;;;1.00;;
5349;SDS011;2697;42.144;24.794;2023-05-02T13:07:06;1.53;;;1.43;;
5349;SDS011;2697;42.144;24.794;2023-05-02T13:09:32;1.87;;;1.07;;
5349;SDS011;2697;42.144;24.794;2023-05-02T13:11:57;4.77;;;1.77;;
5349;SDS011;2697;42.144;24.794;2023-05-02T13:14:23;3.10;;;1.20;;
5349;SDS011;2697;42.144;24.794;2023-05-02T13:16:49;7.63;;;1.53;;
5349;SDS011;2697;42.144;24.794;2023-05-02T13:19:17;5.00;;;1.10;;
5349;SDS011;2697;42.144;24.794;2023-05-02T13:21:43;1.50;;;1.10;;
5349;SDS011;2697;42.144;24.794;2023-05-02T13:24:08;4.60;;;1.30;;
5349;SDS011;2697;42.144;24.794;2023-05-02T13:26:34;2.03;;;1.93;;
5349;SDS011;2697;42.144;24.794;2023-05-02T13:29:00;1.90;;;1.10;;
5349;SDS011;2697;42.144;24.794;2023-05-02T13:31:25;5.23;;;1.50;;
5349;SDS011;2697;42.144;24.794;2023-05-02T13:33:50;4.40;;;1.30;;
5349;SDS011;2697;42.144;24.794;2023-05-02T13:36:16;1.40;;;1.30;;
5349;SDS011;2697;42.144;24.794;2023-05-02T13:38:41;1.40;;;1.10;;
5349;SDS011;2697;42.144;24.794;2023-05-02T13:41:07;8.23;;;1.87;;
5349;SDS011;2697;42.144;24.794;2023-05-02T13:43:32;2.63;;;1.10;;
5349;SDS011;2697;42.144;24.794;2023-05-02T13:45:57;1.73;;;1.30;;
5349;SDS011;2697;42.144;24.794;2023-05-02T13:48:23;4.63;;;1.57;;
5349;SDS011;2697;42.144;24.794;2023-05-02T13:50:49;3.00;;;1.30;;
5349;SDS011;2697;42.144;24.794;2023-05-02T13:53:14;6.30;;;1.30;;
5349;SDS011;2697;42.144;24.794;2023-05-02T13:55:40;2.60;;;1.20;;
5349;SDS011;2697;42.144;24.794;2023-05-02T13:58:05;3.67;;;1.07;;
5349;SDS011;2697;42.144;24.794;2023-05-02T14:00:31;3.57;;;1.97;;
5349;SDS011;2697;42.144;24.794;2023-05-02T14:02:56;1.97;;;1.47;;
5349;SDS011;2697;42.144;24.794;2023-05-02T14:05:22;4.73;;;1.70;;
5349;SDS011;2697;42.144;24.794;2023-05-02T14:07:47;1.77;;;1.50;;
5349;SDS011;2697;42.144;24.794;2023-05-02T14:10:12;6.77;;;1.73;;
5349;SDS011;2697;42.144;24.794;2023-05-02T14:12:38;3.23;;;1.43;;
5349;SDS011;2697;42.144;24.794;2023-05-02T14:15:03;1.70;;;1.30;;
5349;SDS011;2697;42.144;24.794;2023-05-02T14:17:29;4.60;;;1.57;;
5349;SDS011;2697;42.144;24.794;2023-05-02T14:19:56;1.73;;;1.43;;
5349;SDS011;2697;42.144;24.794;2023-05-02T14:22:21;1.30;;;1.13;;
5349;SDS011;2697;42.144;24.794;2023-05-02T14:24:46;2.87;;;1.90;;
5349;SDS011;2697;42.144;24.794;2023-05-02T14:27:12;1.67;;;1.40;;
5349;SDS011;2697;42.144;24.794;2023-05-02T14:29:42;3.13;;;1.40;;
5349;SDS011;2697;42.144;24.794;2023-05-02T14:32:09;7.00;;;1.47;;
5349;SDS011;2697;42.144;24.794;2023-05-02T14:34:34;6.67;;;1.17;;
5349;SDS011;2697;42.144;24.794;2023-05-02T14:36:59;5.60;;;2.17;;
5349;SDS011;2697;42.144;24.794;2023-05-02T14:39:25;3.80;;;1.10;;
5349;SDS011;2697;42.144;24.794;2023-05-02T14:41:51;2.20;;;1.83;;
5349;SDS011;2697;42.144;24.794;2023-05-02T14:44:16;2.90;;;1.10;;
5349;SDS011;2697;42.144;24.794;2023-05-02T14:46:42;2.23;;;1.70;;
5349;SDS011;2697;42.144;24.794;2023-05-02T14:49:07;2.17;;;1.00;;
5349;SDS011;2697;42.144;24.794;2023-05-02T14:51:36;1.90;;;1.30;;
5349;SDS011;2697;42.144;24.794;2023-05-02T14:54:04;2.20;;;1.30;;
5349;SDS011;2697;42.144;24.794;2023-05-02T14:56:31;3.57;;;1.73;;
5349;SDS011;2697;42.144;24.794;2023-05-02T14:58:57;1.90;;;1.60;;
5349;SDS011;2697;42.144;24.794;2023-05-02T15:01:22;7.80;;;1.60;;
5349;SDS011;2697;42.144;24.794;2023-05-02T15:03:47;3.50;;;1.53;;
5349;SDS011;2697;42.144;24.794;2023-05-02T15:06:14;1.57;;;1.20;;
5349;SDS011;2697;42.144;24.794;2023-05-02T15:08:40;2.27;;;1.33;;
5349;SDS011;2697;42.144;24.794;2023-05-02T15:11:08;1.60;;;1.50;;
5349;SDS011;2697;42.144;24.794;2023-05-02T15:13:34;3.80;;;1.20;;
5349;SDS011;2697;42.144;24.794;2023-05-02T15:16:00;2.20;;;1.17;;
5349;SDS011;2697;42.144;24.794;2023-05-02T15:18:26;5.43;;;1.33;;
5349;SDS011;2697;42.144;24.794;2023-05-02T15:20:51;11.43;;;1.77;;
5349;SDS011;2697;42.144;24.794;2023-05-02T15:23:17;5.13;;;2.23;;
5349;SDS011;2697;42.144;24.794;2023-05-02T15:25:42;11.50;;;1.80;;
5349;SDS011;2697;42.144;24.794;2023-05-02T15:28:07;4.60;;;1.50;;
5349;SDS011;2697;42.144;24.794;2023-05-02T15:30:33;3.80;;;1.87;;
5349;SDS011;2697;42.144;24.794;2023-05-02T15:32:58;1.83;;;1.37;;
5349;SDS011;2697;42.144;24.794;2023-05-02T15:35:23;2.87;;;1.17;;
5349;SDS011;2697;42.144;24.794;2023-05-02T15:37:49;5.50;;;1.70;;
5349;SDS011;2697;42.144;24.794;2023-05-02T15:40:14;1.53;;;1.20;;
5349;SDS011;2697;42.144;24.794;2023-05-02T15:42:40;3.60;;;1.27;;
5349;SDS011;2697;42.144;24.794;2023-05-02T15:45:06;2.97;;;1.60;;
5349;SDS011;2697;42.144;24.794;2023-05-02T15:47:31;10.10;;;1.33;;
5349;SDS011;2697;42.144;24.794;2023-05-02T15:49:57;7.33;;;1.90;;